sensor_id;sensor_type;location;lat;lon;timestamp;P1;durP1;ratioP1;P2;durP2;ratioP2
61091;SDS011;46975;51.898;11.444;2023-02-15T00:00:15;44.17;;;21.95;;
61091;SDS011;46975;51.898;11.444;2023-02-15T00:02:41;46.72;;;21.98;;
61091;SDS011;46975;51.898;11.444;2023-02-15T00:05:07;43.72;;;22.52;;
61091;SDS011;46975;51.898;11.444;2023-02-15T00:07:33;47.40;;;20.15;;
61091;SDS011;46975;51.898;11.444;2023-02-15T00:09:59;52.08;;;22.58;;
61091;SDS011;46975;51.898;11.444;2023-02-15T00:12:25;46.15;;;22.90;;
61091;SDS011;46975;51.898;11.444;2023-02-15T00:14:50;50.53;;;22.77;;
61091;SDS011;46975;51.898;11.444;2023-02-15T00:17:16;44.75;;;20.23;;
61091;SDS011;46975;51.898;11.444;2023-02-15T00:19:41;46.30;;;20.40;;
61091;SDS011;46975;51.898;11.444;2023-02-15T00:22:07;45.03;;;21.88;;
61091;SDS011;46975;51.898;11.444;2023-02-15T00:24:33;44.50;;;21.30;;
61091;SDS011;46975;51.898;11.444;2023-02-15T00:26:59;46.50;;;21.42;;
61091;SDS011;46975;51.898;11.444;2023-02-15T00:29:24;41.10;;;18.52;;
61091;SDS011;46975;51.898;11.444;2023-02-15T00:31:50;45.85;;;21.88;;
61091;SDS011;46975;51.898;11.444;2023-02-15T00:34:18;44.65;;;20.80;;
61091;SDS011;46975;51.898;11.444;2023-02-15T00:36:45;48.97;;;21.83;;
61091;SDS011;46975;51.898;11.444;2023-02-15T00:39:11;52.00;;;22.58;;
61091;SDS011;46975;51.898;11.444;2023-02-15T00:41:37;52.28;;;22.48;;
61091;SDS011;46975;51.898;11.444;2023-02-15T00:44:03;42.92;;;20.48;;
61091;SDS011;46975;51.898;11.444;2023-02-15T00:46:30;49.45;;;22.33;;
61091;SDS011;46975;51.898;11.444;2023-02-15T00:48:56;45.65;;;21.40;;
61091;SDS011;46975;51.898;11.444;2023-02-15T00:51:21;44.75;;;21.50;;
61091;SDS011;46975;51.898;11.444;2023-02-15T00:53:48;48.45;;;20.05;;
61091;SDS011;46975;51.898;11.444;2023-02-15T00:56:13;52.22;;;22.33;;
61091;SDS011;46975;51.898;11.444;2023-02-15T00:58:39;49.03;;;21.30;;
61091;SDS011;46975;51.898;11.444;2023-02-15T01:01:08;46.70;;;19.92;;
61091;SDS011;46975;51.898;11.444;2023-02-15T01:03:36;43.67;;;19.00;;
61091;SDS011;46975;51.898;11.444;2023-02-15T01:06:02;42.95;;;20.65;;
61091;SDS011;46975;51.898;11.444;2023-02-15T01:08:28;46.30;;;20.27;;
61091;SDS011;46975;51.898;11.444;2023-02-15T01:10:54;41.70;;;19.10;;
61091;SDS011;46975;51.898;11.444;2023-02-15T01:13:20;50.35;;;18.85;;
61091;SDS011;46975;51.898;11.444;2023-02-15T01:15:51;38.03;;;19.17;;
61091;SDS011;46975;51.898;11.444;2023-02-15T01:18:19;40.00;;;17.98;;
61091;SDS011;46975;51.898;11.444;2023-02-15T01:20:44;40.80;;;19.60;;
61091;SDS011;46975;51.898;11.444;2023-02-15T01:23:10;49.90;;;23.73;;
61091;SDS011;46975;51.898;11.444;2023-02-15T01:25:36;46.20;;;21.52;;
61091;SDS011;46975;51.898;11.444;2023-02-15T01:28:02;51.90;;;22.92;;
61091;SDS011;46975;51.898;11.444;2023-02-15T01:30:28;45.13;;;20.15;;
61091;SDS011;46975;51.898;11.444;2023-02-15T01:32:54;48.55;;;21.20;;
61091;SDS011;46975;51.898;11.444;2023-02-15T01:35:19;50.13;;;20.20;;
61091;SDS011;46975;51.898;11.444;2023-02-15T01:37:45;47.00;;;19.70;;
61091;SDS011;46975;51.898;11.444;2023-02-15T01:40:15;44.05;;;19.58;;
61091;SDS011;46975;51.898;11.444;2023-02-15T01:42:41;46.90;;;19.40;;
61091;SDS011;46975;51.898;11.444;2023-02-15T01:45:27;43.55;;;20.02;;
61091;SDS011;46975;51.898;11.444;2023-02-15T01:52:56;45.90;;;20.00;;
61091;SDS011;46975;51.898;11.444;2023-02-15T01:55:54;37.53;;;18.08;;
61091;SDS011;46975;51.898;11.444;2023-02-15T01:58:32;40.45;;;18.05;;
61091;SDS011;46975;51.898;11.444;2023-02-15T02:01:00;36.17;;;18.27;;
61091;SDS011;46975;51.898;11.444;2023-02-15T02:06:18;52.40;;;19.70;;
61091;SDS011;46975;51.898;11.444;2023-02-15T02:08:45;48.45;;;20.58;;
61091;SDS011;46975;51.898;11.444;2023-02-15T02:11:12;65.65;;;21.17;;
61091;SDS011;46975;51.898;11.444;2023-02-15T02:13:39;87.32;;;24.10;;
61091;SDS011;46975;51.898;11.444;2023-02-15T02:16:11;87.80;;;21.60;;
61091;SDS011;46975;51.898;11.444;2023-02-15T02:21:38;180.07;;;27.83;;
61091;SDS011;46975;51.898;11.444;2023-02-15T02:25:05;163.82;;;24.13;;
61091;SDS011;46975;51.898;11.444;2023-02-15T02:35:45;257.25;;;31.02;;
61091;SDS011;46975;51.898;11.444;2023-02-15T02:41:16;117.72;;;21.70;;
61091;SDS011;46975;51.898;11.444;2023-02-15T02:49:03;98.35;;;18.10;;
61091;SDS011;46975;51.898;11.444;2023-02-15T02:51:29;54.90;;;15.75;;
61091;SDS011;46975;51.898;11.444;2023-02-15T02:53:55;51.15;;;14.38;;
61091;SDS011;46975;51.898;11.444;2023-02-15T02:56:25;88.88;;;18.70;;
61091;SDS011;46975;51.898;11.444;2023-02-15T02:59:01;34.22;;;15.00;;
61091;SDS011;46975;51.898;11.444;2023-02-15T03:01:39;34.17;;;15.98;;
61091;SDS011;46975;51.898;11.444;2023-02-15T03:04:18;28.38;;;15.20;;
61091;SDS011;46975;51.898;11.444;2023-02-15T03:09:21;35.03;;;16.80;;
61091;SDS011;46975;51.898;11.444;2023-02-15T03:11:50;32.10;;;16.05;;
61091;SDS011;46975;51.898;11.444;2023-02-15T03:14:16;45.78;;;17.13;;
61091;SDS011;46975;51.898;11.444;2023-02-15T03:16:44;66.22;;;20.27;;
61091;SDS011;46975;51.898;11.444;2023-02-15T03:19:23;106.22;;;20.63;;
61091;SDS011;46975;51.898;11.444;2023-02-15T03:24:30;220.73;;;29.83;;
61091;SDS011;46975;51.898;11.444;2023-02-15T03:26:59;251.68;;;30.92;;
61091;SDS011;46975;51.898;11.444;2023-02-15T03:29:33;361.80;;;43.95;;
61091;SDS011;46975;51.898;11.444;2023-02-15T03:32:03;301.08;;;36.90;;
61091;SDS011;46975;51.898;11.444;2023-02-15T03:34:32;262.48;;;33.33;;
61091;SDS011;46975;51.898;11.444;2023-02-15T03:37:00;399.77;;;40.83;;
61091;SDS011;46975;51.898;11.444;2023-02-15T03:39:35;389.25;;;41.80;;
61091;SDS011;46975;51.898;11.444;2023-02-15T03:47:31;123.30;;;23.85;;
61091;SDS011;46975;51.898;11.444;2023-02-15T03:50:02;134.75;;;25.48;;
61091;SDS011;46975;51.898;11.444;2023-02-15T03:52:55;90.63;;;22.45;;
61091;SDS011;46975;51.898;11.444;2023-02-15T03:55:24;175.15;;;27.63;;
61091;SDS011;46975;51.898;11.444;2023-02-15T03:57:50;120.80;;;21.90;;
61091;SDS011;46975;51.898;11.444;2023-02-15T04:00:36;198.45;;;28.83;;
61091;SDS011;46975;51.898;11.444;2023-02-15T04:03:30;218.93;;;28.93;;
61091;SDS011;46975;51.898;11.444;2023-02-15T04:06:02;99.40;;;19.65;;
61091;SDS011;46975;51.898;11.444;2023-02-15T04:08:28;94.93;;;19.08;;
61091;SDS011;46975;51.898;11.444;2023-02-15T04:11:12;164.93;;;22.60;;
61091;SDS011;46975;51.898;11.444;2023-02-15T04:13:38;120.75;;;19.98;;
61091;SDS011;46975;51.898;11.444;2023-02-15T04:16:03;87.75;;;19.25;;
61091;SDS011;46975;51.898;11.444;2023-02-15T04:18:47;158.90;;;22.42;;
61091;SDS011;46975;51.898;11.444;2023-02-15T04:21:31;92.10;;;19.58;;
61091;SDS011;46975;51.898;11.444;2023-02-15T04:24:16;120.57;;;25.02;;
61091;SDS011;46975;51.898;11.444;2023-02-15T04:27:00;102.28;;;23.42;;
61091;SDS011;46975;51.898;11.444;2023-02-15T04:29:27;80.28;;;18.98;;
61091;SDS011;46975;51.898;11.444;2023-02-15T04:31:53;71.47;;;17.98;;
61091;SDS011;46975;51.898;11.444;2023-02-15T04:34:20;56.20;;;16.08;;
61091;SDS011;46975;51.898;11.444;2023-02-15T04:36:46;69.75;;;15.38;;
61091;SDS011;46975;51.898;11.444;2023-02-15T04:39:12;58.13;;;14.95;;
61091;SDS011;46975;51.898;11.444;2023-02-15T04:41:38;80.40;;;15.45;;
61091;SDS011;46975;51.898;11.444;2023-02-15T04:44:04;52.38;;;13.88;;
61091;SDS011;46975;51.898;11.444;2023-02-15T04:46:30;60.08;;;14.90;;
61091;SDS011;46975;51.898;11.444;2023-02-15T04:48:56;46.53;;;14.43;;
61091;SDS011;46975;51.898;11.444;2023-02-15T04:51:22;47.85;;;14.55;;
61091;SDS011;46975;51.898;11.444;2023-02-15T04:53:47;88.93;;;16.58;;
61091;SDS011;46975;51.898;11.444;2023-02-15T04:56:13;80.28;;;16.67;;
61091;SDS011;46975;51.898;11.444;2023-02-15T04:58:39;118.22;;;21.08;;
61091;SDS011;46975;51.898;11.444;2023-02-15T05:03:33;65.05;;;15.57;;
61091;SDS011;46975;51.898;11.444;2023-02-15T05:05:59;111.13;;;19.88;;
61091;SDS011;46975;51.898;11.444;2023-02-15T05:08:24;68.47;;;17.73;;
61091;SDS011;46975;51.898;11.444;2023-02-15T05:10:50;70.75;;;21.88;;
61091;SDS011;46975;51.898;11.444;2023-02-15T05:13:16;81.20;;;20.85;;
61091;SDS011;46975;51.898;11.444;2023-02-15T05:15:46;80.97;;;20.73;;
61091;SDS011;46975;51.898;11.444;2023-02-15T05:18:15;58.22;;;19.20;;
61091;SDS011;46975;51.898;11.444;2023-02-15T05:20:42;58.45;;;17.60;;
61091;SDS011;46975;51.898;11.444;2023-02-15T05:23:07;73.80;;;17.45;;
61091;SDS011;46975;51.898;11.444;2023-02-15T05:25:33;54.10;;;15.02;;
61091;SDS011;46975;51.898;11.444;2023-02-15T05:28:17;59.25;;;14.93;;
61091;SDS011;46975;51.898;11.444;2023-02-15T05:31:05;55.08;;;14.82;;
61091;SDS011;46975;51.898;11.444;2023-02-15T05:33:38;61.92;;;14.98;;
61091;SDS011;46975;51.898;11.444;2023-02-15T05:36:04;66.32;;;15.00;;
61091;SDS011;46975;51.898;11.444;2023-02-15T05:38:31;60.42;;;15.40;;
61091;SDS011;46975;51.898;11.444;2023-02-15T05:40:57;53.38;;;13.50;;
61091;SDS011;46975;51.898;11.444;2023-02-15T05:43:24;54.83;;;14.30;;
61091;SDS011;46975;51.898;11.444;2023-02-15T05:45:53;60.03;;;14.38;;
61091;SDS011;46975;51.898;11.444;2023-02-15T05:48:20;42.50;;;12.57;;
61091;SDS011;46975;51.898;11.444;2023-02-15T05:50:56;31.95;;;12.93;;
61091;SDS011;46975;51.898;11.444;2023-02-15T05:53:27;75.13;;;15.18;;
61091;SDS011;46975;51.898;11.444;2023-02-15T05:55:54;38.30;;;12.93;;
61091;SDS011;46975;51.898;11.444;2023-02-15T05:58:24;75.38;;;15.82;;
61091;SDS011;46975;51.898;11.444;2023-02-15T06:00:54;53.90;;;14.70;;
61091;SDS011;46975;51.898;11.444;2023-02-15T06:03:19;76.22;;;15.45;;
61091;SDS011;46975;51.898;11.444;2023-02-15T06:05:45;68.40;;;15.05;;
61091;SDS011;46975;51.898;11.444;2023-02-15T06:08:11;154.07;;;19.83;;
61091;SDS011;46975;51.898;11.444;2023-02-15T06:10:36;112.00;;;17.35;;
61091;SDS011;46975;51.898;11.444;2023-02-15T06:13:02;58.15;;;14.73;;
61091;SDS011;46975;51.898;11.444;2023-02-15T06:15:28;109.78;;;18.13;;
61091;SDS011;46975;51.898;11.444;2023-02-15T06:17:53;85.20;;;16.60;;
61091;SDS011;46975;51.898;11.444;2023-02-15T06:20:19;39.13;;;13.27;;
61091;SDS011;46975;51.898;11.444;2023-02-15T06:22:44;120.03;;;17.70;;
61091;SDS011;46975;51.898;11.444;2023-02-15T06:25:10;80.63;;;16.10;;
61091;SDS011;46975;51.898;11.444;2023-02-15T06:27:36;105.78;;;16.73;;
61091;SDS011;46975;51.898;11.444;2023-02-15T06:30:03;87.45;;;15.98;;
61091;SDS011;46975;51.898;11.444;2023-02-15T06:32:30;37.83;;;13.30;;
61091;SDS011;46975;51.898;11.444;2023-02-15T06:34:56;116.13;;;17.85;;
61091;SDS011;46975;51.898;11.444;2023-02-15T06:37:22;67.70;;;14.88;;
61091;SDS011;46975;51.898;11.444;2023-02-15T06:39:47;107.07;;;16.63;;
61091;SDS011;46975;51.898;11.444;2023-02-15T06:42:13;69.97;;;13.93;;
61091;SDS011;46975;51.898;11.444;2023-02-15T06:44:39;75.25;;;15.35;;
61091;SDS011;46975;51.898;11.444;2023-02-15T06:47:04;43.47;;;12.80;;
61091;SDS011;46975;51.898;11.444;2023-02-15T06:49:30;50.75;;;13.13;;
61091;SDS011;46975;51.898;11.444;2023-02-15T06:51:55;46.78;;;12.38;;
61091;SDS011;46975;51.898;11.444;2023-02-15T06:54:21;66.05;;;14.48;;
61091;SDS011;46975;51.898;11.444;2023-02-15T06:56:47;66.40;;;15.02;;
61091;SDS011;46975;51.898;11.444;2023-02-15T06:59:12;114.68;;;16.17;;
61091;SDS011;46975;51.898;11.444;2023-02-15T07:01:38;93.25;;;14.55;;
61091;SDS011;46975;51.898;11.444;2023-02-15T07:04:03;76.40;;;15.40;;
61091;SDS011;46975;51.898;11.444;2023-02-15T07:06:32;70.78;;;14.93;;
61091;SDS011;46975;51.898;11.444;2023-02-15T07:08:58;54.35;;;14.00;;
61091;SDS011;46975;51.898;11.444;2023-02-15T07:11:24;46.05;;;13.60;;
61091;SDS011;46975;51.898;11.444;2023-02-15T07:14:08;96.97;;;15.43;;
61091;SDS011;46975;51.898;11.444;2023-02-15T07:16:34;57.45;;;13.52;;
61091;SDS011;46975;51.898;11.444;2023-02-15T07:18:59;49.65;;;13.40;;
61091;SDS011;46975;51.898;11.444;2023-02-15T07:21:25;68.70;;;14.35;;
61091;SDS011;46975;51.898;11.444;2023-02-15T07:23:51;44.88;;;13.55;;
61091;SDS011;46975;51.898;11.444;2023-02-15T07:26:16;96.85;;;15.95;;
61091;SDS011;46975;51.898;11.444;2023-02-15T07:28:42;87.15;;;15.05;;
61091;SDS011;46975;51.898;11.444;2023-02-15T07:31:07;69.00;;;14.63;;
61091;SDS011;46975;51.898;11.444;2023-02-15T07:33:33;60.60;;;13.45;;
61091;SDS011;46975;51.898;11.444;2023-02-15T07:36:00;73.38;;;14.05;;
61091;SDS011;46975;51.898;11.444;2023-02-15T07:38:31;72.50;;;15.15;;
61091;SDS011;46975;51.898;11.444;2023-02-15T07:40:59;35.65;;;12.25;;
61091;SDS011;46975;51.898;11.444;2023-02-15T07:43:27;67.65;;;14.43;;
61091;SDS011;46975;51.898;11.444;2023-02-15T07:45:54;37.37;;;12.07;;
61091;SDS011;46975;51.898;11.444;2023-02-15T07:48:24;35.90;;;11.65;;
61091;SDS011;46975;51.898;11.444;2023-02-15T07:50:49;28.15;;;11.85;;
61091;SDS011;46975;51.898;11.444;2023-02-15T07:53:15;46.22;;;12.13;;
61091;SDS011;46975;51.898;11.444;2023-02-15T07:55:40;75.70;;;14.30;;
61091;SDS011;46975;51.898;11.444;2023-02-15T07:58:06;42.53;;;13.02;;
61091;SDS011;46975;51.898;11.444;2023-02-15T08:00:31;40.40;;;9.93;;
61091;SDS011;46975;51.898;11.444;2023-02-15T08:03:17;29.20;;;9.73;;
61091;SDS011;46975;51.898;11.444;2023-02-15T08:05:43;54.85;;;11.55;;
61091;SDS011;46975;51.898;11.444;2023-02-15T08:08:10;45.60;;;10.57;;
61091;SDS011;46975;51.898;11.444;2023-02-15T08:13:47;48.42;;;10.50;;
61091;SDS011;46975;51.898;11.444;2023-02-15T08:16:27;18.52;;;9.23;;
61091;SDS011;46975;51.898;11.444;2023-02-15T08:18:55;68.15;;;12.65;;
61091;SDS011;46975;51.898;11.444;2023-02-15T08:21:21;51.38;;;11.68;;
61091;SDS011;46975;51.898;11.444;2023-02-15T08:23:48;25.33;;;10.73;;
61091;SDS011;46975;51.898;11.444;2023-02-15T08:26:13;30.88;;;11.98;;
61091;SDS011;46975;51.898;11.444;2023-02-15T08:28:40;38.47;;;12.00;;
61091;SDS011;46975;51.898;11.444;2023-02-15T08:31:06;35.72;;;11.38;;
61091;SDS011;46975;51.898;11.444;2023-02-15T08:33:33;41.20;;;11.77;;
61091;SDS011;46975;51.898;11.444;2023-02-15T08:36:07;29.65;;;11.52;;
61091;SDS011;46975;51.898;11.444;2023-02-15T08:38:34;62.40;;;11.65;;
61091;SDS011;46975;51.898;11.444;2023-02-15T08:41:13;29.60;;;10.45;;
61091;SDS011;46975;51.898;11.444;2023-02-15T08:43:44;49.97;;;13.30;;
61091;SDS011;46975;51.898;11.444;2023-02-15T08:46:11;59.75;;;11.85;;
61091;SDS011;46975;51.898;11.444;2023-02-15T08:48:38;73.82;;;13.30;;
61091;SDS011;46975;51.898;11.444;2023-02-15T08:51:14;33.95;;;12.45;;
61091;SDS011;46975;51.898;11.444;2023-02-15T08:53:42;23.63;;;9.38;;
61091;SDS011;46975;51.898;11.444;2023-02-15T08:56:10;35.03;;;12.00;;
61091;SDS011;46975;51.898;11.444;2023-02-15T08:58:36;31.67;;;11.38;;
61091;SDS011;46975;51.898;11.444;2023-02-15T09:01:08;35.28;;;10.98;;
61091;SDS011;46975;51.898;11.444;2023-02-15T09:03:35;38.60;;;10.20;;
61091;SDS011;46975;51.898;11.444;2023-02-15T09:06:00;22.58;;;9.35;;
61091;SDS011;46975;51.898;11.444;2023-02-15T09:08:27;20.27;;;11.07;;
61091;SDS011;46975;51.898;11.444;2023-02-15T09:10:53;25.60;;;8.98;;
61091;SDS011;46975;51.898;11.444;2023-02-15T09:13:20;43.30;;;10.95;;
61091;SDS011;46975;51.898;11.444;2023-02-15T09:15:45;29.45;;;10.13;;
61091;SDS011;46975;51.898;11.444;2023-02-15T09:18:11;52.80;;;10.73;;
61091;SDS011;46975;51.898;11.444;2023-02-15T09:20:41;28.10;;;10.48;;
61091;SDS011;46975;51.898;11.444;2023-02-15T09:23:08;23.13;;;10.38;;
61091;SDS011;46975;51.898;11.444;2023-02-15T09:25:34;31.77;;;10.25;;
61091;SDS011;46975;51.898;11.444;2023-02-15T09:27:59;47.88;;;12.85;;
61091;SDS011;46975;51.898;11.444;2023-02-15T09:30:25;25.88;;;12.35;;
61091;SDS011;46975;51.898;11.444;2023-02-15T09:32:50;31.02;;;11.48;;
61091;SDS011;46975;51.898;11.444;2023-02-15T09:35:16;28.55;;;11.70;;
61091;SDS011;46975;51.898;11.444;2023-02-15T09:37:42;79.63;;;13.27;;
61091;SDS011;46975;51.898;11.444;2023-02-15T09:40:07;114.20;;;15.80;;
61091;SDS011;46975;51.898;11.444;2023-02-15T09:53:05;33.88;;;11.80;;
61091;SDS011;46975;51.898;11.444;2023-02-15T10:02:20;75.82;;;11.52;;
61091;SDS011;46975;51.898;11.444;2023-02-15T10:04:33;42.70;;;10.77;;
61091;SDS011;46975;51.898;11.444;2023-02-15T10:20:51;41.15;;;10.35;;
61091;SDS011;46975;51.898;11.444;2023-02-15T10:26:20;58.70;;;13.23;;
61091;SDS011;46975;51.898;11.444;2023-02-15T10:29:12;20.58;;;11.10;;
61091;SDS011;46975;51.898;11.444;2023-02-15T10:31:55;92.22;;;15.27;;
61091;SDS011;46975;51.898;11.444;2023-02-15T10:34:38;21.58;;;10.57;;
61091;SDS011;46975;51.898;11.444;2023-02-15T10:48:44;123.28;;;17.95;;
61091;SDS011;46975;51.898;11.444;2023-02-15T10:51:16;77.97;;;14.10;;
61091;SDS011;46975;51.898;11.444;2023-02-15T11:02:25;59.17;;;12.05;;
61091;SDS011;46975;51.898;11.444;2023-02-15T11:07:45;23.20;;;10.57;;
61091;SDS011;46975;51.898;11.444;2023-02-15T11:10:23;21.40;;;10.30;;
61091;SDS011;46975;51.898;11.444;2023-02-15T11:12:55;15.55;;;8.25;;
61091;SDS011;46975;51.898;11.444;2023-02-15T11:15:29;18.33;;;9.07;;
61091;SDS011;46975;51.898;11.444;2023-02-15T11:18:48;17.45;;;10.05;;
61091;SDS011;46975;51.898;11.444;2023-02-15T11:21:09;19.27;;;9.50;;
61091;SDS011;46975;51.898;11.444;2023-02-15T11:23:45;17.15;;;8.85;;
61091;SDS011;46975;51.898;11.444;2023-02-15T11:29:18;18.75;;;12.20;;
61091;SDS011;46975;51.898;11.444;2023-02-15T11:31:49;20.48;;;12.25;;
61091;SDS011;46975;51.898;11.444;2023-02-15T11:34:27;15.35;;;9.88;;
61091;SDS011;46975;51.898;11.444;2023-02-15T11:36:55;18.55;;;10.43;;
61091;SDS011;46975;51.898;11.444;2023-02-15T11:39:26;14.85;;;10.48;;
61091;SDS011;46975;51.898;11.444;2023-02-15T11:41:55;19.27;;;10.32;;
61091;SDS011;46975;51.898;11.444;2023-02-15T11:45:00;16.98;;;9.68;;
61091;SDS011;46975;51.898;11.444;2023-02-15T11:47:26;15.80;;;9.65;;
61091;SDS011;46975;51.898;11.444;2023-02-15T11:49:52;14.48;;;9.50;;
61091;SDS011;46975;51.898;11.444;2023-02-15T11:52:18;16.42;;;10.02;;
61091;SDS011;46975;51.898;11.444;2023-02-15T11:54:46;22.13;;;10.90;;
61091;SDS011;46975;51.898;11.444;2023-02-15T12:02:45;17.45;;;10.25;;
61091;SDS011;46975;51.898;11.444;2023-02-15T12:05:16;16.85;;;10.82;;
61091;SDS011;46975;51.898;11.444;2023-02-15T12:07:46;16.60;;;10.43;;
61091;SDS011;46975;51.898;11.444;2023-02-15T12:10:22;16.38;;;10.52;;
61091;SDS011;46975;51.898;11.444;2023-02-15T12:13:08;18.17;;;11.35;;
61091;SDS011;46975;51.898;11.444;2023-02-15T12:15:40;19.33;;;10.05;;
61091;SDS011;46975;51.898;11.444;2023-02-15T12:21:03;18.73;;;12.07;;
61091;SDS011;46975;51.898;11.444;2023-02-15T12:26:13;18.23;;;12.55;;
61091;SDS011;46975;51.898;11.444;2023-02-15T12:28:42;20.27;;;11.13;;
61091;SDS011;46975;51.898;11.444;2023-02-15T12:31:32;24.08;;;10.90;;
61091;SDS011;46975;51.898;11.444;2023-02-15T12:34:02;21.05;;;12.25;;
61091;SDS011;46975;51.898;11.444;2023-02-15T12:36:42;18.20;;;11.07;;
61091;SDS011;46975;51.898;11.444;2023-02-15T12:41:37;18.75;;;11.48;;
61091;SDS011;46975;51.898;11.444;2023-02-15T12:47:11;19.48;;;11.73;;
61091;SDS011;46975;51.898;11.444;2023-02-15T12:49:43;17.73;;;10.90;;
61091;SDS011;46975;51.898;11.444;2023-02-15T12:54:45;18.55;;;11.70;;
61091;SDS011;46975;51.898;11.444;2023-02-15T12:57:30;17.50;;;10.98;;
61091;SDS011;46975;51.898;11.444;2023-02-15T13:02:27;14.85;;;9.63;;
61091;SDS011;46975;51.898;11.444;2023-02-15T13:05:05;15.68;;;9.88;;
61091;SDS011;46975;51.898;11.444;2023-02-15T13:07:49;15.45;;;10.52;;
61091;SDS011;46975;51.898;11.444;2023-02-15T13:10:23;16.65;;;10.40;;
61091;SDS011;46975;51.898;11.444;2023-02-15T13:12:49;17.30;;;11.45;;
61091;SDS011;46975;51.898;11.444;2023-02-15T13:15:34;12.77;;;9.30;;
61091;SDS011;46975;51.898;11.444;2023-02-15T13:18:05;15.18;;;9.52;;
61091;SDS011;46975;51.898;11.444;2023-02-15T13:20:37;14.98;;;10.02;;
61091;SDS011;46975;51.898;11.444;2023-02-15T13:23:08;15.63;;;9.97;;
61091;SDS011;46975;51.898;11.444;2023-02-15T13:25:47;12.52;;;9.45;;
61091;SDS011;46975;51.898;11.444;2023-02-15T13:28:15;15.10;;;7.97;;
61091;SDS011;46975;51.898;11.444;2023-02-15T13:30:44;18.17;;;9.68;;
61091;SDS011;46975;51.898;11.444;2023-02-15T13:33:26;13.27;;;7.90;;
61091;SDS011;46975;51.898;11.444;2023-02-15T13:36:02;15.25;;;8.93;;
61091;SDS011;46975;51.898;11.444;2023-02-15T13:49:52;11.48;;;8.30;;
61091;SDS011;46975;51.898;11.444;2023-02-15T13:52:44;11.10;;;8.20;;
61091;SDS011;46975;51.898;11.444;2023-02-15T13:55:34;12.02;;;7.53;;
61091;SDS011;46975;51.898;11.444;2023-02-15T13:58:21;15.68;;;7.88;;
61091;SDS011;46975;51.898;11.444;2023-02-15T14:20:22;12.00;;;8.10;;
61091;SDS011;46975;51.898;11.444;2023-02-15T14:25:33;11.98;;;8.50;;
61091;SDS011;46975;51.898;11.444;2023-02-15T14:31:00;11.45;;;7.30;;
61091;SDS011;46975;51.898;11.444;2023-02-15T14:33:33;11.02;;;8.35;;
61091;SDS011;46975;51.898;11.444;2023-02-15T14:36:08;10.88;;;7.82;;
61091;SDS011;46975;51.898;11.444;2023-02-15T14:44:09;11.10;;;7.28;;
61091;SDS011;46975;51.898;11.444;2023-02-15T14:49:38;9.85;;;7.43;;
61091;SDS011;46975;51.898;11.444;2023-02-15T14:59:36;10.20;;;7.57;;
61091;SDS011;46975;51.898;11.444;2023-02-15T15:02:26;11.95;;;8.35;;
61091;SDS011;46975;51.898;11.444;2023-02-15T15:07:40;12.50;;;8.90;;
61091;SDS011;46975;51.898;11.444;2023-02-15T15:12:50;15.23;;;9.05;;
61091;SDS011;46975;51.898;11.444;2023-02-15T15:20:49;11.60;;;8.02;;
61091;SDS011;46975;51.898;11.444;2023-02-15T15:25:48;25.05;;;17.48;;
61091;SDS011;46975;51.898;11.444;2023-02-15T15:31:02;14.90;;;12.87;;
61091;SDS011;46975;51.898;11.444;2023-02-15T15:33:53;13.82;;;10.45;;
61091;SDS011;46975;51.898;11.444;2023-02-15T15:50:11;11.18;;;8.23;;
61091;SDS011;46975;51.898;11.444;2023-02-15T15:52:40;10.38;;;8.23;;
61091;SDS011;46975;51.898;11.444;2023-02-15T15:55:20;13.30;;;8.57;;
61091;SDS011;46975;51.898;11.444;2023-02-15T15:57:52;13.88;;;9.82;;
61091;SDS011;46975;51.898;11.444;2023-02-15T16:00:40;14.57;;;9.63;;
61091;SDS011;46975;51.898;11.444;2023-02-15T16:03:13;14.38;;;8.95;;
61091;SDS011;46975;51.898;11.444;2023-02-15T16:05:41;14.77;;;9.43;;
61091;SDS011;46975;51.898;11.444;2023-02-15T16:08:06;16.30;;;10.10;;
61091;SDS011;46975;51.898;11.444;2023-02-15T16:10:32;11.60;;;9.38;;
61091;SDS011;46975;51.898;11.444;2023-02-15T16:12:59;13.85;;;9.85;;
61091;SDS011;46975;51.898;11.444;2023-02-15T16:15:30;17.35;;;10.27;;
61091;SDS011;46975;51.898;11.444;2023-02-15T16:18:01;13.57;;;9.43;;
61091;SDS011;46975;51.898;11.444;2023-02-15T16:20:34;18.10;;;10.52;;
